Terminal Aerodrome Forecast
Issued by NWS Buffalo, NY

Home | Current Version | Previous Version | Text Only | Print | Product List | Glossary On
Versions: 1 2 3 4 5 6 7 8 9 10 11 12 13 14 15 16 17 18 19 20 21 22 23 24
227
FTUS41 KBUF 090533
TAFROC
TAF
KROC 090533Z 0906/1006 28012G18KT 2SM -SN OVC025
     FM090700 29012KT 1 1/2SM -SN OVC020
     FM090900 30011KT 5SM -SN OVC025
     FM091200 31011G18KT P6SM OVC035
     FM092100 30009KT P6SM VCSH OVC035=

USA.gov is the U.S. government's official web portal to all federal, state and local government web resources and services.